createdAt,value
2022-11-22T00:01:21.550Z,96842.19
2022-11-22T00:03:49.834Z,96848.47
2022-11-22T00:06:18.192Z,96851.25
2022-11-22T00:08:46.529Z,96847.31
2022-11-22T00:11:15.384Z,96855.38
2022-11-22T00:13:44.225Z,96854.59
2022-11-22T00:16:12.902Z,96851.25
2022-11-22T00:18:41.211Z,96838.75
2022-11-22T00:21:09.483Z,96847.53
2022-11-22T00:23:37.798Z,96849.47
2022-11-22T00:26:12.191Z,96846.19
2022-11-22T00:28:40.705Z,96857.19
2022-11-22T00:31:09.049Z,96862.72
2022-11-22T00:33:37.463Z,96865.91
2022-11-22T00:36:05.786Z,96860.72
2022-11-22T00:38:34.074Z,96867.28
2022-11-22T00:41:02.321Z,96876.38
2022-11-22T00:43:30.648Z,96875.75
2022-11-22T00:45:59.942Z,96864.13
2022-11-22T00:48:28.424Z,96867.78
2022-11-22T00:50:56.789Z,96867.97
2022-11-22T00:53:25.115Z,96867.75
2022-11-22T00:55:53.393Z,96861.81
2022-11-22T00:58:21.676Z,96862.38
2022-11-22T01:00:55.033Z,96869.94
2022-11-22T01:03:24.850Z,96860.44
2022-11-22T01:05:53.276Z,96858.66
2022-11-22T01:08:21.567Z,96852.91
2022-11-22T01:10:55.113Z,96852.66
2022-11-22T01:13:23.519Z,96851.91
2022-11-22T01:15:52.291Z,96854.44
2022-11-22T01:18:20.615Z,96847.66
2022-11-22T01:20:48.955Z,96845.50
2022-11-22T01:23:17.303Z,96857.59
2022-11-22T01:25:45.704Z,96851.72
2022-11-22T01:28:14.067Z,96853.31
2022-11-22T01:30:42.969Z,96858.16
2022-11-22T01:33:12.344Z,96846.88
2022-11-22T01:35:40.713Z,96850.50
2022-11-22T01:38:09.065Z,96847.06
2022-11-22T01:40:37.417Z,96856.38
2022-11-22T01:43:11.847Z,96853.50
2022-11-22T01:45:42.932Z,96857.50
2022-11-22T01:48:13.926Z,96851.41
2022-11-22T01:50:43.952Z,96854.19
2022-11-22T01:53:15.168Z,96856.44
2022-11-22T01:55:43.564Z,96848.75
2022-11-22T01:58:11.892Z,96849.84
2022-11-22T02:00:40.260Z,96848.31
2022-11-22T02:03:09.575Z,96839.09
2022-11-22T02:05:37.843Z,96852.41
2022-11-22T02:08:41.511Z,96850.63
2022-11-22T02:11:11.449Z,96850.19
2022-11-22T02:13:41.620Z,96851.78
2022-11-22T02:16:10.758Z,96850.88
2022-11-22T02:18:39.285Z,96837.16
2022-11-22T02:21:08.296Z,96831.09
2022-11-22T02:23:47.895Z,96840.66
2022-11-22T02:26:16.213Z,96836.25
2022-11-22T02:28:44.578Z,96838.56
2022-11-22T02:31:46.914Z,96839.66
2022-11-22T02:34:15.825Z,96854.69
2022-11-22T02:36:50.018Z,96847.34
2022-11-22T02:39:20.721Z,96853.66
2022-11-22T02:41:49.299Z,96846.91
2022-11-22T02:44:17.753Z,96852.78
2022-11-22T02:46:50.654Z,96847.66
2022-11-22T02:49:19.964Z,96849.69
2022-11-22T02:51:48.875Z,96853.69
2022-11-22T02:54:17.822Z,96849.53
2022-11-22T02:56:46.241Z,96848.84
2022-11-22T02:59:15.590Z,96853.59
2022-11-22T03:01:44.005Z,96859.38
2022-11-22T03:04:25.141Z,96854.66
2022-11-22T03:06:57.311Z,96855.91
2022-11-22T03:09:26.836Z,96849.00
2022-11-22T03:11:55.397Z,96859.38
2022-11-22T03:14:23.805Z,96863.56
2022-11-22T03:16:52.229Z,96856.28
2022-11-22T03:19:20.648Z,96851.41
2022-11-22T03:21:49.052Z,96849.84
2022-11-22T03:24:17.570Z,96850.03
2022-11-22T03:26:49.694Z,96842.56
2022-11-22T03:29:18.344Z,96849.06
2022-11-22T03:31:46.664Z,96840.97
2022-11-22T03:34:15.047Z,96831.34
2022-11-22T03:36:43.474Z,96832.81
2022-11-22T03:39:11.750Z,96828.91
2022-11-22T03:41:40.808Z,96818.44
2022-11-22T03:44:09.080Z,96811.44
2022-11-22T03:46:37.448Z,96819.81
2022-11-22T03:49:05.788Z,96813.72
2022-11-22T03:51:34.089Z,96823.66
2022-11-22T03:54:02.987Z,96830.81
2022-11-22T03:56:31.263Z,96825.97
2022-11-22T03:58:59.635Z,96824.75
2022-11-22T04:01:27.943Z,96835.84
2022-11-22T04:03:57.994Z,96830.28
2022-11-22T04:06:26.338Z,96834.66
2022-11-22T04:08:54.716Z,96836.13
2022-11-22T04:11:23.090Z,96842.84
2022-11-22T04:14:09.566Z,96841.38
2022-11-22T04:16:37.888Z,96843.06
2022-11-22T04:19:07.740Z,96848.66
2022-11-22T04:21:36.167Z,96847.91
2022-11-22T04:24:25.360Z,96866.84
2022-11-22T04:26:54.501Z,96857.75
2022-11-22T04:29:22.860Z,96861.97
2022-11-22T04:32:09.850Z,96873.19
2022-11-22T04:34:38.210Z,96869.63
2022-11-22T04:37:06.634Z,96872.63
2022-11-22T04:39:35.425Z,96879.13
2022-11-22T04:42:22.230Z,96878.69
2022-11-22T04:44:50.566Z,96884.22
2022-11-22T04:47:39.089Z,96889.38
2022-11-22T04:50:28.397Z,96898.75
2022-11-22T04:52:57.866Z,96904.56
2022-11-22T04:55:26.566Z,96902.00
2022-11-22T04:57:59.559Z,96900.88
2022-11-22T05:00:29.508Z,96896.97
2022-11-22T05:02:58.168Z,96903.75
2022-11-22T05:05:26.591Z,96901.06
2022-11-22T05:07:55.062Z,96895.50
2022-11-22T05:10:26.798Z,96887.28
2022-11-22T05:12:56.300Z,96908.00
2022-11-22T05:15:25.320Z,96908.16
2022-11-22T05:17:53.681Z,96903.97
2022-11-22T05:20:22.108Z,96898.94
2022-11-22T05:23:08.652Z,96903.22
2022-11-22T05:25:36.961Z,96903.50
2022-11-22T05:28:05.466Z,96911.16
2022-11-22T05:30:33.792Z,96918.50
2022-11-22T05:33:02.091Z,96918.00
2022-11-22T05:35:30.397Z,96920.38
2022-11-22T05:37:58.853Z,96918.16
2022-11-22T05:40:27.311Z,96922.22
2022-11-22T05:42:55.667Z,96929.75
2022-11-22T05:45:24.097Z,96930.75
2022-11-22T05:47:52.522Z,96933.94
2022-11-22T05:50:20.898Z,96931.03
2022-11-22T05:52:55.564Z,96924.97
2022-11-22T05:55:23.850Z,96919.56
2022-11-22T05:57:52.903Z,96925.53
2022-11-22T06:00:21.355Z,96928.22
2022-11-22T06:02:49.782Z,96931.47
2022-11-22T06:05:18.108Z,96931.09
2022-11-22T06:07:46.742Z,96919.47
2022-11-22T06:10:15.218Z,96924.44
2022-11-22T06:12:43.783Z,96925.06
2022-11-22T06:15:12.239Z,96922.56
2022-11-22T06:17:41.205Z,96926.25
2022-11-22T06:20:10.092Z,96917.19
2022-11-22T06:22:38.602Z,96921.63
2022-11-22T06:25:08.265Z,96921.75
2022-11-22T06:27:36.633Z,96924.72
2022-11-22T06:30:05.397Z,96919.16
2022-11-22T06:32:34.869Z,96925.41
2022-11-22T06:35:04.286Z,96943.81
2022-11-22T06:37:32.932Z,96930.75
2022-11-22T06:40:01.347Z,96925.38
2022-11-22T06:42:29.683Z,96916.75
2022-11-22T06:44:58.097Z,96920.47
2022-11-22T06:47:27.596Z,96910.06
2022-11-22T06:49:55.974Z,96902.31
2022-11-22T06:52:24.364Z,96916.16
2022-11-22T06:54:52.895Z,96922.06
2022-11-22T06:57:22.468Z,96922.00
2022-11-22T06:59:50.947Z,96914.94
2022-11-22T07:02:19.953Z,96907.44
2022-11-22T07:05:09.789Z,96906.81
2022-11-22T07:07:37.466Z,96913.94
2022-11-22T07:10:06.379Z,96917.16
2022-11-22T07:12:34.730Z,96905.34
2022-11-22T07:15:03.137Z,96907.41
2022-11-22T07:17:31.551Z,96901.56
2022-11-22T07:19:59.949Z,96904.72
2022-11-22T07:22:28.961Z,96898.91
2022-11-22T07:24:57.410Z,96896.03
2022-11-22T07:27:25.993Z,96896.31
2022-11-22T07:29:54.460Z,96882.63
2022-11-22T07:32:22.849Z,96875.38
2022-11-22T07:34:51.149Z,96880.81
2022-11-22T07:37:19.563Z,96881.56
2022-11-22T07:39:48.177Z,96880.28
2022-11-22T07:42:16.528Z,96890.81
2022-11-22T07:44:45.674Z,96889.94
2022-11-22T07:47:18.394Z,96891.38
2022-11-22T07:49:50.214Z,96875.47
2022-11-22T07:52:18.723Z,96883.84
2022-11-22T07:54:47.140Z,96872.91
2022-11-22T07:57:15.498Z,96865.50
2022-11-22T07:59:43.791Z,96856.69
2022-11-22T08:02:12.696Z,96853.78
2022-11-22T08:04:41.210Z,96849.72
2022-11-22T08:07:09.928Z,96844.94
2022-11-22T08:09:38.433Z,96844.09
2022-11-22T08:12:07.031Z,96848.94
2022-11-22T08:14:35.401Z,96843.16
2022-11-22T08:17:03.864Z,96839.88
2022-11-22T08:19:36.006Z,96838.63
2022-11-22T08:22:04.455Z,96828.09
2022-11-22T08:24:34.119Z,96830.25
2022-11-22T08:27:02.973Z,96832.47
2022-11-22T08:29:31.513Z,96830.56
2022-11-22T08:32:00.124Z,96820.28
2022-11-22T08:34:28.514Z,96820.06
2022-11-22T08:36:57.019Z,96810.94
2022-11-22T08:39:25.503Z,96805.25
2022-11-22T08:41:54.038Z,96816.38
2022-11-22T08:44:22.465Z,96798.16
2022-11-22T08:46:50.837Z,96799.72
2022-11-22T08:49:19.223Z,96794.38
2022-11-22T08:51:47.625Z,96806.84
2022-11-22T08:54:16.084Z,96802.94
2022-11-22T08:56:44.716Z,96773.78
2022-11-22T08:59:13.230Z,96791.31
2022-11-22T09:01:41.830Z,96782.81
2022-11-22T09:04:11.028Z,96778.56
2022-11-22T09:09:42.808Z,96760.50
2022-11-22T09:12:11.385Z,96770.66
2022-11-22T09:14:40.818Z,96760.88
2022-11-22T09:17:14.562Z,96747.84
2022-11-22T09:19:45.882Z,96742.91
2022-11-22T09:22:14.309Z,96733.53
2022-11-22T09:24:42.672Z,96732.66
2022-11-22T09:27:11.003Z,96732.47
2022-11-22T09:29:39.601Z,96730.63
2022-11-22T09:32:11.331Z,96729.28
2022-11-22T09:34:39.684Z,96725.34
2022-11-22T09:37:08.100Z,96738.63
2022-11-22T09:39:36.507Z,96731.84
2022-11-22T09:42:31.412Z,96742.47
2022-11-22T09:46:01.158Z,96746.53
2022-11-22T09:48:42.923Z,96733.38
2022-11-22T09:51:14.786Z,96727.78
2022-11-22T09:53:47.245Z,96736.94
2022-11-22T09:56:17.479Z,96740.84
2022-11-22T09:59:00.422Z,96746.03
2022-11-22T10:01:52.625Z,96735.38
2022-11-22T10:04:58.877Z,96733.31
2022-11-22T10:07:31.796Z,96731.78
2022-11-22T10:10:15.841Z,96727.38
2022-11-22T10:12:48.970Z,96723.66
2022-11-22T10:15:23.165Z,96716.34
2022-11-22T10:17:58.493Z,96711.00
2022-11-22T10:20:35.078Z,96704.31
2022-11-22T10:23:05.569Z,96709.34
2022-11-22T10:25:41.946Z,96703.28
2022-11-22T10:28:39.437Z,96708.06
2022-11-22T10:31:12.947Z,96713.97
2022-11-22T10:33:53.324Z,96708.84
2022-11-22T10:36:27.623Z,96702.22
2022-11-22T10:39:24.158Z,96686.41
2022-11-22T10:42:01.242Z,96677.53
2022-11-22T10:45:04.891Z,96681.16
2022-11-22T10:47:49.986Z,96669.91
2022-11-22T10:50:24.831Z,96664.09
2022-11-22T10:53:35.248Z,96657.88
2022-11-22T10:56:30.849Z,96651.28
2022-11-22T10:59:29.154Z,96647.16
2022-11-22T11:02:28.224Z,96643.53
2022-11-22T11:04:56.664Z,96650.94
2022-11-22T11:07:25.065Z,96637.63
2022-11-22T11:10:23.579Z,96629.69
2022-11-22T11:12:52.159Z,96635.78
2022-11-22T11:15:33.376Z,96627.34
2022-11-22T11:18:03.131Z,96626.47
2022-11-22T11:20:39.437Z,96625.78
2022-11-22T11:23:15.562Z,96622.09
2022-11-22T11:25:48.459Z,96627.22
2022-11-22T11:28:27.482Z,96614.94
2022-11-22T11:31:20.128Z,96608.25
2022-11-22T11:33:48.891Z,96608.66
2022-11-22T11:36:24.334Z,96600.91
2022-11-22T11:38:55.089Z,96609.59
2022-11-22T11:41:25.035Z,96601.06
2022-11-22T11:43:54.837Z,96598.38
2022-11-22T11:46:27.973Z,96602.72
2022-11-22T11:49:10.366Z,96606.34
2022-11-22T11:51:42.704Z,96594.44
2022-11-22T11:54:11.250Z,96592.38
2022-11-22T11:56:46.050Z,96590.28
2022-11-22T11:59:18.619Z,96580.47
2022-11-22T12:02:11.196Z,96585.25
2022-11-22T12:05:03.010Z,96591.75
2022-11-22T12:07:34.482Z,96587.53
2022-11-22T12:10:24.144Z,96587.78
2022-11-22T12:12:58.988Z,96579.47
2022-11-22T12:15:48.501Z,96583.00
2022-11-22T12:18:35.622Z,96584.81
2022-11-22T12:21:42.865Z,96579.44
2022-11-22T12:24:45.198Z,96579.84
2022-11-22T12:27:11.871Z,96572.53
2022-11-22T12:29:41.589Z,96563.56
2022-11-22T12:32:38.627Z,96569.59
2022-11-22T12:35:21.551Z,96553.22
2022-11-22T12:38:27.895Z,96545.69
2022-11-22T12:40:57.861Z,96543.06
2022-11-22T12:43:32.087Z,96561.72
2022-11-22T12:46:25.998Z,96561.03
2022-11-22T12:48:55.355Z,96563.63
2022-11-22T12:51:31.624Z,96560.94
2022-11-22T12:54:01.596Z,96557.72
2022-11-22T12:56:59.907Z,96549.44
2022-11-22T12:59:35.768Z,96538.53
2022-11-22T13:02:08.309Z,96544.03
2022-11-22T13:04:47.671Z,96532.97
2022-11-22T13:07:20.356Z,96536.19
2022-11-22T13:09:52.374Z,96536.72
2022-11-22T13:12:31.205Z,96537.53
2022-11-22T13:14:59.631Z,96545.03
2022-11-22T13:17:33.067Z,96563.63
2022-11-22T13:20:06.872Z,96566.72
2022-11-22T13:23:08.881Z,96558.72
2022-11-22T13:26:14.718Z,96561.00
2022-11-22T13:28:44.150Z,96555.81
2022-11-22T13:31:12.682Z,96561.25
2022-11-22T13:34:00.730Z,96559.41
2022-11-22T13:36:32.565Z,96549.97
2022-11-22T13:39:02.787Z,96540.06
2022-11-22T13:41:58.867Z,96537.53
2022-11-22T13:44:33.505Z,96537.38
2022-11-22T13:47:06.119Z,96533.56
2022-11-22T13:49:49.016Z,96533.94
2022-11-22T13:52:17.942Z,96543.19
2022-11-22T13:54:56.667Z,96545.34
2022-11-22T13:57:40.782Z,96542.44
2022-11-22T14:00:15.791Z,96529.75
2022-11-22T14:03:16.938Z,96538.63
2022-11-22T14:05:52.659Z,96537.75
2022-11-22T14:08:41.682Z,96543.31
2022-11-22T14:11:18.331Z,96547.75
2022-11-22T14:13:52.587Z,96536.97
2022-11-22T14:16:44.736Z,96524.91
2022-11-22T14:19:35.982Z,96530.84
2022-11-22T14:22:18.441Z,96516.38
2022-11-22T14:25:10.792Z,96512.00
2022-11-22T14:27:44.074Z,96509.81
2022-11-22T14:30:23.092Z,96509.84
2022-11-22T14:33:04.459Z,96508.69
2022-11-22T14:35:38.767Z,96509.69
2022-11-22T14:38:10.430Z,96519.44
2022-11-22T14:40:41.220Z,96509.34
2022-11-22T14:43:12.444Z,96514.22
2022-11-22T14:45:50.622Z,96514.81
2022-11-22T14:48:23.825Z,96521.47
2022-11-22T14:51:02.288Z,96507.66
2022-11-22T14:53:34.817Z,96505.94
2022-11-22T14:56:07.973Z,96492.97
2022-11-22T14:58:39.486Z,96500.81
2022-11-22T15:01:43.026Z,96507.84
2022-11-22T15:09:19.647Z,96514.41
2022-11-22T15:09:19.915Z,96494.25
2022-11-22T15:11:00.103Z,96500.28
2022-11-22T15:13:47.662Z,96498.25
2022-11-22T15:59:47.847Z,96484.13
2022-11-22T16:02:21.679Z,96483.06
2022-11-22T16:06:08.380Z,96484.22
2022-11-22T16:07:49.596Z,96491.91
2022-11-22T16:10:38.161Z,96502.22
2022-11-22T16:13:24.842Z,96506.56
2022-11-22T16:16:07.492Z,96500.16
2022-11-22T16:18:42.346Z,96500.94
2022-11-22T16:21:12.595Z,96505.63
2022-11-22T16:23:45.378Z,96504.97
2022-11-22T16:26:22.808Z,96501.75
2022-11-22T16:28:53.423Z,96488.44
2022-11-22T16:31:26.764Z,96480.00
2022-11-22T16:33:55.520Z,96486.28
2022-11-22T16:36:25.580Z,96475.81
2022-11-22T16:38:55.339Z,96474.56
2022-11-22T16:41:25.954Z,96442.75
2022-11-22T16:44:21.277Z,96435.13
2022-11-22T16:46:50.365Z,96417.66
2022-11-22T16:49:22.010Z,96417.00
2022-11-22T16:51:51.489Z,96409.03
2022-11-22T16:54:21.032Z,96403.78
2022-11-22T16:56:49.462Z,96394.97
2022-11-22T16:59:19.838Z,96392.94
2022-11-22T17:01:50.579Z,96378.63
2022-11-22T17:04:23.279Z,96383.41
2022-11-22T17:06:52.607Z,96375.16
2022-11-22T17:09:20.964Z,96384.03
2022-11-22T17:11:49.709Z,96388.06
2022-11-22T17:14:18.594Z,96381.84
2022-11-22T17:16:48.221Z,96383.75
2022-11-22T17:22:07.919Z,96371.69
2022-11-22T17:24:37.420Z,96369.22
2022-11-22T17:27:05.938Z,96384.66
2022-11-22T17:29:49.889Z,96391.16
2022-11-22T17:32:20.144Z,96368.41
2022-11-22T17:34:49.469Z,96368.97
2022-11-22T17:37:20.021Z,96368.34
2022-11-22T17:39:51.754Z,96353.38
2022-11-22T17:42:22.456Z,96360.94
2022-11-22T17:44:51.649Z,96374.78
2022-11-22T17:47:21.257Z,96376.22
2022-11-22T17:49:57.279Z,96361.41
2022-11-22T17:52:28.324Z,96362.47
2022-11-22T17:55:03.516Z,96345.47
2022-11-22T17:57:37.376Z,96333.97
2022-11-22T18:00:09.421Z,96338.34
2022-11-22T18:02:41.695Z,96338.31
2022-11-22T18:05:14.063Z,96337.25
2022-11-22T18:07:47.672Z,96310.41
2022-11-22T18:10:19.278Z,96312.13
2022-11-22T18:13:19.450Z,96318.66
2022-11-22T18:15:46.043Z,96300.09
2022-11-22T18:18:40.721Z,96286.56
2022-11-22T18:21:16.865Z,96287.66
2022-11-22T18:23:46.831Z,96282.66
2022-11-22T18:26:38.227Z,96300.75
2022-11-22T18:31:54.614Z,96294.50
2022-11-22T18:34:29.534Z,96289.66
2022-11-22T18:37:04.843Z,96284.84
2022-11-22T18:39:38.784Z,96284.06
2022-11-22T18:42:17.896Z,96293.88
2022-11-22T18:44:50.441Z,96281.97
2022-11-22T18:47:19.224Z,96289.31
2022-11-22T18:49:50.749Z,96289.03
2022-11-22T18:52:23.291Z,96292.84
2022-11-22T18:54:51.932Z,96290.38
2022-11-22T18:57:21.649Z,96289.22
2022-11-22T18:59:51.064Z,96286.06
2022-11-22T19:02:30.436Z,96276.50
2022-11-22T19:04:58.909Z,96298.56
2022-11-22T19:07:27.598Z,96299.81
2022-11-22T19:10:00.048Z,96298.88
2022-11-22T19:12:29.074Z,96276.38
2022-11-22T19:14:58.123Z,96283.78
2022-11-22T19:17:28.928Z,96291.50
2022-11-22T19:19:59.805Z,96287.72
2022-11-22T19:22:34.862Z,96288.75
2022-11-22T19:25:04.850Z,96274.63
2022-11-22T19:27:34.508Z,96271.97
2022-11-22T19:30:03.352Z,96284.09
2022-11-22T19:32:33.351Z,96268.13
2022-11-22T19:35:01.909Z,96277.44
2022-11-22T19:37:31.271Z,96265.25
2022-11-22T19:39:59.846Z,96273.59
2022-11-22T19:42:33.555Z,96288.81
2022-11-22T19:45:02.329Z,96277.06
2022-11-22T19:47:30.703Z,96285.00
2022-11-22T19:50:01.754Z,96282.75
2022-11-22T19:52:31.717Z,96275.97
2022-11-22T19:55:01.788Z,96294.94
2022-11-22T19:57:31.822Z,96295.03
2022-11-22T20:00:01.408Z,96293.47
2022-11-22T20:02:32.000Z,96298.38
2022-11-22T20:05:03.377Z,96298.38
2022-11-22T20:07:33.099Z,96291.63
2022-11-22T20:10:04.586Z,96302.19
2022-11-22T20:12:35.580Z,96317.91
2022-11-22T20:15:04.922Z,96324.91
2022-11-22T20:17:44.191Z,96296.59
2022-11-22T20:20:15.319Z,96280.34
2022-11-22T20:22:46.711Z,96260.81
2022-11-22T20:25:18.271Z,96259.69
2022-11-22T20:27:48.674Z,96247.09
2022-11-22T20:30:17.489Z,96258.69
2022-11-22T20:32:46.212Z,96276.41
2022-11-22T20:35:16.672Z,96257.25
2022-11-22T20:37:45.168Z,96236.28
2022-11-22T20:40:13.594Z,96234.41
2022-11-22T20:42:44.906Z,96215.94
2022-11-22T20:45:13.233Z,96218.47
2022-11-22T20:47:41.721Z,96204.41
2022-11-22T20:50:10.627Z,96202.84
2022-11-22T20:52:39.300Z,96204.22
2022-11-22T20:55:10.803Z,96198.06
2022-11-22T20:57:40.347Z,96204.69
2022-11-22T21:00:09.679Z,96197.31
2022-11-22T21:02:38.154Z,96198.56
2022-11-22T21:05:08.072Z,96175.72
2022-11-22T21:07:37.388Z,96186.63
2022-11-22T21:10:06.233Z,96174.91
2022-11-22T21:12:34.665Z,96165.25
2022-11-22T21:15:03.190Z,96157.50
2022-11-22T21:17:55.606Z,96156.63
2022-11-22T21:20:20.526Z,96143.59
2022-11-22T21:22:53.100Z,96155.00
2022-11-22T21:25:21.994Z,96139.03
2022-11-22T21:27:51.060Z,96125.91
2022-11-22T21:30:21.146Z,96161.75
2022-11-22T21:32:49.404Z,96180.22
2022-11-22T21:35:18.031Z,96174.31
2022-11-22T21:37:46.382Z,96177.53
2022-11-22T21:40:15.291Z,96172.44
2022-11-22T21:42:44.833Z,96169.47
2022-11-22T21:45:13.230Z,96180.00
2022-11-22T21:47:41.622Z,96177.56
2022-11-22T21:50:11.797Z,96171.44
2022-11-22T21:52:40.421Z,96152.78
2022-11-22T21:55:10.136Z,96146.50
2022-11-22T21:57:39.575Z,96162.06
2022-11-22T22:00:08.783Z,96156.94
2022-11-22T22:02:37.173Z,96147.25
2022-11-22T22:05:06.468Z,96157.13
2022-11-22T22:07:51.869Z,96153.31
2022-11-22T22:10:20.783Z,96154.81
2022-11-22T22:12:53.208Z,96156.88
2022-11-22T22:15:23.278Z,96161.81
2022-11-22T22:17:54.920Z,96165.31
2022-11-22T22:20:23.608Z,96165.72
2022-11-22T22:22:52.332Z,96161.38
2022-11-22T22:25:20.731Z,96162.19
2022-11-22T22:27:49.555Z,96151.03
2022-11-22T22:30:18.095Z,96141.88
2022-11-22T22:32:47.189Z,96132.84
2022-11-22T22:35:15.693Z,96134.84
2022-11-22T22:37:44.120Z,96130.16
2022-11-22T22:40:12.804Z,96111.44
2022-11-22T22:42:41.344Z,96124.69
2022-11-22T22:45:11.264Z,96131.16
2022-11-22T22:47:39.764Z,96125.81
2022-11-22T22:50:08.975Z,96117.97
2022-11-22T22:52:37.615Z,96108.19
2022-11-22T22:55:06.731Z,96086.88
2022-11-22T22:57:35.650Z,96074.91
2022-11-22T23:00:04.977Z,96081.59
2022-11-22T23:02:33.512Z,96061.81
2022-11-22T23:05:02.351Z,96061.81
2022-11-22T23:07:30.715Z,96058.09
2022-11-22T23:09:59.011Z,96061.78
2022-11-22T23:12:27.592Z,96076.72
2022-11-22T23:14:55.924Z,96064.44
2022-11-22T23:17:26.103Z,96069.06
2022-11-22T23:19:54.556Z,96060.06
2022-11-22T23:22:25.961Z,96060.94
2022-11-22T23:24:54.544Z,96053.72
2022-11-22T23:27:22.902Z,96062.09
2022-11-22T23:29:51.124Z,96063.16
2022-11-22T23:32:19.445Z,96055.00
2022-11-22T23:34:47.803Z,96055.91
2022-11-22T23:37:16.314Z,96045.16
2022-11-22T23:39:44.600Z,96056.66
2022-11-22T23:42:12.974Z,96050.56
2022-11-22T23:44:41.243Z,96060.28
2022-11-22T23:47:09.533Z,96052.16
2022-11-22T23:49:40.153Z,96042.69
2022-11-22T23:52:08.559Z,96038.72
2022-11-22T23:54:36.938Z,96047.47
2022-11-22T23:57:05.254Z,96047.03
2022-11-22T23:59:33.672Z,96067.75
